sensor_id;sensor_type;location;lat;lon;timestamp;pressure;altitude;pressure_sealevel;temperature;humidity
76632;BME280;65526;48.578;-4.520;2023-09-30T00:01:12;102059.28;;;10.80;100.00
76632;BME280;65526;48.578;-4.520;2023-09-30T00:03:40;102332.81;;;12.83;100.00
76632;BME280;65526;48.578;-4.520;2023-09-30T00:06:07;102051.81;;;10.89;100.00
76632;BME280;65526;48.578;-4.520;2023-09-30T00:08:33;102320.69;;;12.87;100.00
76632;BME280;65526;48.578;-4.520;2023-09-30T00:11:00;102395.38;;;12.90;100.00
76632;BME280;65526;48.578;-4.520;2023-09-30T00:13:26;101820.84;;;9.75;100.00
76632;BME280;65526;48.578;-4.520;2023-09-30T00:15:52;102441.00;;;12.94;100.00
76632;BME280;65526;48.578;-4.520;2023-09-30T00:18:19;102337.44;;;12.96;100.00
76632;BME280;65526;48.578;-4.520;2023-09-30T00:20:45;101696.81;;;8.78;100.00
76632;BME280;65526;48.578;-4.520;2023-09-30T00:23:12;102352.69;;;12.73;100.00
76632;BME280;65526;48.578;-4.520;2023-09-30T00:25:39;102328.91;;;12.92;100.00
76632;BME280;65526;48.578;-4.520;2023-09-30T00:28:05;101894.03;;;10.02;100.00
76632;BME280;65526;48.578;-4.520;2023-09-30T00:30:32;102354.50;;;12.94;100.00
76632;BME280;65526;48.578;-4.520;2023-09-30T00:32:59;102077.22;;;11.04;100.00
76632;BME280;65526;48.578;-4.520;2023-09-30T00:35:26;102348.44;;;13.01;100.00
76632;BME280;65526;48.578;-4.520;2023-09-30T00:37:52;102317.56;;;12.72;100.00
76632;BME280;65526;48.578;-4.520;2023-09-30T00:40:19;102250.22;;;12.30;100.00
76632;BME280;65526;48.578;-4.520;2023-09-30T00:42:46;102151.63;;;11.61;100.00
76632;BME280;65526;48.578;-4.520;2023-09-30T00:45:12;101845.78;;;10.20;100.00
76632;BME280;65526;48.578;-4.520;2023-09-30T00:47:39;102030.38;;;10.89;100.00
76632;BME280;65526;48.578;-4.520;2023-09-30T00:50:07;101954.50;;;10.97;100.00
76632;BME280;65526;48.578;-4.520;2023-09-30T00:52:35;102148.22;;;11.64;100.00
76632;BME280;65526;48.578;-4.520;2023-09-30T00:55:02;101965.94;;;11.04;100.00
76632;BME280;65526;48.578;-4.520;2023-09-30T00:57:32;101602.66;;;8.28;100.00
76632;BME280;65526;48.578;-4.520;2023-09-30T01:00:00;101451.16;;;7.98;100.00
76632;BME280;65526;48.578;-4.520;2023-09-30T01:02:27;101950.06;;;10.96;100.00
76632;BME280;65526;48.578;-4.520;2023-09-30T01:04:54;102143.63;;;11.68;100.00
76632;BME280;65526;48.578;-4.520;2023-09-30T01:07:21;101438.44;;;7.75;100.00
76632;BME280;65526;48.578;-4.520;2023-09-30T01:09:48;101376.53;;;7.26;100.00
76632;BME280;65526;48.578;-4.520;2023-09-30T01:12:15;102024.16;;;11.40;100.00
76632;BME280;65526;48.578;-4.520;2023-09-30T01:14:41;101820.59;;;9.63;100.00
76632;BME280;65526;48.578;-4.520;2023-09-30T01:17:08;101487.38;;;8.10;100.00
76632;BME280;65526;48.578;-4.520;2023-09-30T01:19:35;102334.13;;;12.77;100.00
76632;BME280;65526;48.578;-4.520;2023-09-30T01:22:02;102355.47;;;12.73;100.00
76632;BME280;65526;48.578;-4.520;2023-09-30T01:24:38;101707.63;;;9.02;100.00
76632;BME280;65526;48.578;-4.520;2023-09-30T01:27:08;101794.75;;;9.54;100.00
76632;BME280;65526;48.578;-4.520;2023-09-30T01:29:35;102222.63;;;12.11;100.00
76632;BME280;65526;48.578;-4.520;2023-09-30T01:32:04;101591.28;;;8.30;100.00
76632;BME280;65526;48.578;-4.520;2023-09-30T01:34:36;102146.84;;;11.52;100.00
76632;BME280;65526;48.578;-4.520;2023-09-30T01:37:02;101562.16;;;7.96;100.00
76632;BME280;65526;48.578;-4.520;2023-09-30T01:39:29;101778.63;;;9.34;100.00
76632;BME280;65526;48.578;-4.520;2023-09-30T01:41:59;101770.31;;;9.34;100.00
76632;BME280;65526;48.578;-4.520;2023-09-30T01:44:26;102324.91;;;12.59;100.00
76632;BME280;65526;48.578;-4.520;2023-09-30T01:46:52;102343.78;;;12.62;100.00
76632;BME280;65526;48.578;-4.520;2023-09-30T01:49:19;102278.81;;;12.61;100.00
76632;BME280;65526;48.578;-4.520;2023-09-30T01:51:45;101661.47;;;8.84;100.00
76632;BME280;65526;48.578;-4.520;2023-09-30T01:54:12;101980.38;;;11.15;100.00
76632;BME280;65526;48.578;-4.520;2023-09-30T01:56:38;101990.97;;;10.96;100.00
76632;BME280;65526;48.578;-4.520;2023-09-30T01:59:05;102221.88;;;12.62;100.00
76632;BME280;65526;48.578;-4.520;2023-09-30T02:01:31;101719.31;;;9.52;100.00
76632;BME280;65526;48.578;-4.520;2023-09-30T02:03:58;101691.13;;;9.28;100.00
76632;BME280;65526;48.578;-4.520;2023-09-30T02:06:24;101743.91;;;9.14;100.00
76632;BME280;65526;48.578;-4.520;2023-09-30T02:08:51;102218.59;;;12.60;100.00
76632;BME280;65526;48.578;-4.520;2023-09-30T02:11:18;102007.63;;;11.35;100.00
76632;BME280;65526;48.578;-4.520;2023-09-30T02:13:44;101688.06;;;9.38;100.00
76632;BME280;65526;48.578;-4.520;2023-09-30T02:16:12;101630.00;;;9.10;100.00
76632;BME280;65526;48.578;-4.520;2023-09-30T02:18:43;102031.75;;;11.09;100.00
76632;BME280;65526;48.578;-4.520;2023-09-30T02:21:11;102227.13;;;12.55;100.00
76632;BME280;65526;48.578;-4.520;2023-09-30T02:23:37;101978.56;;;11.02;100.00
76632;BME280;65526;48.578;-4.520;2023-09-30T02:26:04;101819.84;;;9.71;100.00
76632;BME280;65526;48.578;-4.520;2023-09-30T02:28:30;101574.88;;;8.56;100.00
76632;BME280;65526;48.578;-4.520;2023-09-30T02:31:00;102244.34;;;12.57;100.00
76632;BME280;65526;48.578;-4.520;2023-09-30T02:33:27;101947.16;;;11.10;100.00
76632;BME280;65526;48.578;-4.520;2023-09-30T02:35:53;101827.63;;;9.91;100.00
76632;BME280;65526;48.578;-4.520;2023-09-30T02:38:20;102226.97;;;12.52;100.00
76632;BME280;65526;48.578;-4.520;2023-09-30T02:40:47;101620.41;;;8.86;100.00
76632;BME280;65526;48.578;-4.520;2023-09-30T02:43:14;102218.59;;;12.52;100.00
76632;BME280;65526;48.578;-4.520;2023-09-30T02:45:42;102309.81;;;12.51;100.00
76632;BME280;65526;48.578;-4.520;2023-09-30T02:48:09;102277.47;;;12.50;100.00
76632;BME280;65526;48.578;-4.520;2023-09-30T02:50:36;101609.16;;;8.82;100.00
76632;BME280;65526;48.578;-4.520;2023-09-30T02:53:02;102193.00;;;12.50;100.00
76632;BME280;65526;48.578;-4.520;2023-09-30T02:55:31;101710.19;;;9.21;100.00
76632;BME280;65526;48.578;-4.520;2023-09-30T02:57:57;102287.97;;;12.45;100.00
76632;BME280;65526;48.578;-4.520;2023-09-30T03:00:25;101662.91;;;9.03;100.00
76632;BME280;65526;48.578;-4.520;2023-09-30T03:03:00;102284.53;;;12.48;100.00
76632;BME280;65526;48.578;-4.520;2023-09-30T03:05:30;101472.66;;;7.79;100.00
76632;BME280;65526;48.578;-4.520;2023-09-30T03:08:00;101757.41;;;9.07;100.00
76632;BME280;65526;48.578;-4.520;2023-09-30T03:10:27;101465.63;;;7.73;100.00
76632;BME280;65526;48.578;-4.520;2023-09-30T03:12:53;102265.97;;;12.35;100.00
76632;BME280;65526;48.578;-4.520;2023-09-30T03:15:20;101352.56;;;6.99;100.00
76632;BME280;65526;48.578;-4.520;2023-09-30T03:17:47;101704.41;;;9.08;100.00
76632;BME280;65526;48.578;-4.520;2023-09-30T03:20:13;101710.41;;;9.10;100.00
76632;BME280;65526;48.578;-4.520;2023-09-30T03:22:42;101867.03;;;10.24;100.00
76632;BME280;65526;48.578;-4.520;2023-09-30T03:25:12;101904.91;;;10.43;100.00
76632;BME280;65526;48.578;-4.520;2023-09-30T03:27:39;102240.84;;;12.26;100.00
76632;BME280;65526;48.578;-4.520;2023-09-30T03:30:06;101773.19;;;9.51;100.00
76632;BME280;65526;48.578;-4.520;2023-09-30T03:32:33;101666.41;;;9.09;100.00
76632;BME280;65526;48.578;-4.520;2023-09-30T03:35:00;101461.84;;;7.55;100.00
76632;BME280;65526;48.578;-4.520;2023-09-30T03:37:27;101325.53;;;6.96;100.00
76632;BME280;65526;48.578;-4.520;2023-09-30T03:39:54;102240.69;;;12.22;100.00
76632;BME280;65526;48.578;-4.520;2023-09-30T03:42:21;101495.88;;;7.55;100.00
76632;BME280;65526;48.578;-4.520;2023-09-30T03:44:47;101911.13;;;10.48;100.00
76632;BME280;65526;48.578;-4.520;2023-09-30T03:47:18;101462.28;;;7.48;100.00
76632;BME280;65526;48.578;-4.520;2023-09-30T03:49:45;101292.78;;;6.54;100.00
76632;BME280;65526;48.578;-4.520;2023-09-30T03:52:11;101878.38;;;10.37;100.00
76632;BME280;65526;48.578;-4.520;2023-09-30T03:54:38;102241.97;;;12.16;100.00
76632;BME280;65526;48.578;-4.520;2023-09-30T03:57:04;101541.97;;;7.60;100.00
76632;BME280;65526;48.578;-4.520;2023-09-30T03:59:31;101878.56;;;10.40;100.00
76632;BME280;65526;48.578;-4.520;2023-09-30T04:01:57;101678.28;;;9.09;100.00
76632;BME280;65526;48.578;-4.520;2023-09-30T04:04:24;101912.34;;;10.11;100.00
76632;BME280;65526;48.578;-4.520;2023-09-30T04:06:51;101747.00;;;9.43;100.00
76632;BME280;65526;48.578;-4.520;2023-09-30T04:09:18;102172.47;;;12.11;100.00
76632;BME280;65526;48.578;-4.520;2023-09-30T04:11:45;101514.56;;;7.86;100.00
76632;BME280;65526;48.578;-4.520;2023-09-30T04:14:12;102160.44;;;11.94;100.00
76632;BME280;65526;48.578;-4.520;2023-09-30T04:16:39;102204.72;;;12.12;100.00
76632;BME280;65526;48.578;-4.520;2023-09-30T04:19:05;102239.34;;;12.11;100.00
76632;BME280;65526;48.578;-4.520;2023-09-30T04:21:36;102141.31;;;12.09;100.00
76632;BME280;65526;48.578;-4.520;2023-09-30T04:24:05;101590.50;;;8.16;100.00
76632;BME280;65526;48.578;-4.520;2023-09-30T04:26:33;101647.50;;;8.89;100.00
76632;BME280;65526;48.578;-4.520;2023-09-30T04:28:59;102164.09;;;12.11;100.00
76632;BME280;65526;48.578;-4.520;2023-09-30T04:31:28;102134.69;;;11.79;100.00
76632;BME280;65526;48.578;-4.520;2023-09-30T04:33:54;102195.22;;;12.13;100.00
76632;BME280;65526;48.578;-4.520;2023-09-30T04:36:21;102168.28;;;11.83;100.00
76632;BME280;65526;48.578;-4.520;2023-09-30T04:38:51;101865.78;;;10.39;100.00
76632;BME280;65526;48.578;-4.520;2023-09-30T04:41:20;101697.91;;;9.13;100.00
76632;BME280;65526;48.578;-4.520;2023-09-30T04:43:47;101722.66;;;9.09;100.00
76632;BME280;65526;48.578;-4.520;2023-09-30T04:46:14;102153.28;;;12.18;100.00
76632;BME280;65526;48.578;-4.520;2023-09-30T04:48:40;101660.59;;;8.97;100.00
76632;BME280;65526;48.578;-4.520;2023-09-30T04:51:07;102190.00;;;12.20;100.00
76632;BME280;65526;48.578;-4.520;2023-09-30T04:53:34;101348.56;;;7.28;100.00
76632;BME280;65526;48.578;-4.520;2023-09-30T04:56:01;101240.69;;;6.61;100.00
76632;BME280;65526;48.578;-4.520;2023-09-30T04:58:28;102017.13;;;10.95;100.00
76632;BME280;65526;48.578;-4.520;2023-09-30T05:00:55;102219.19;;;12.23;100.00
76632;BME280;65526;48.578;-4.520;2023-09-30T05:03:22;101694.06;;;9.31;100.00
76632;BME280;65526;48.578;-4.520;2023-09-30T05:05:53;101670.28;;;9.39;100.00
76632;BME280;65526;48.578;-4.520;2023-09-30T05:08:23;101899.44;;;10.29;100.00
76632;BME280;65526;48.578;-4.520;2023-09-30T05:10:50;102073.56;;;11.26;100.00
76632;BME280;65526;48.578;-4.520;2023-09-30T05:13:16;101166.19;;;5.84;100.00
76632;BME280;65526;48.578;-4.520;2023-09-30T05:15:43;101883.00;;;10.50;100.00
76632;BME280;65526;48.578;-4.520;2023-09-30T05:18:10;102214.13;;;12.25;100.00
76632;BME280;65526;48.578;-4.520;2023-09-30T05:20:36;101856.97;;;10.37;100.00
76632;BME280;65526;48.578;-4.520;2023-09-30T05:23:05;102177.53;;;12.26;100.00
76632;BME280;65526;48.578;-4.520;2023-09-30T05:25:33;101499.53;;;7.65;100.00
76632;BME280;65526;48.578;-4.520;2023-09-30T05:27:59;102172.06;;;11.87;100.00
76632;BME280;65526;48.578;-4.520;2023-09-30T05:30:26;101414.31;;;7.67;100.00
76632;BME280;65526;48.578;-4.520;2023-09-30T05:32:52;101641.53;;;9.04;100.00
76632;BME280;65526;48.578;-4.520;2023-09-30T05:35:19;102158.88;;;12.36;100.00
76632;BME280;65526;48.578;-4.520;2023-09-30T05:37:48;101667.69;;;9.11;100.00
76632;BME280;65526;48.578;-4.520;2023-09-30T05:40:18;101671.25;;;9.34;100.00
76632;BME280;65526;48.578;-4.520;2023-09-30T05:42:57;101425.28;;;8.03;100.00
76632;BME280;65526;48.578;-4.520;2023-09-30T05:45:24;101480.78;;;8.42;100.00
76632;BME280;65526;48.578;-4.520;2023-09-30T05:47:53;101941.09;;;11.08;100.00
76632;BME280;65526;48.578;-4.520;2023-09-30T05:50:21;102201.84;;;12.43;100.00
76632;BME280;65526;48.578;-4.520;2023-09-30T05:52:51;101894.19;;;10.67;100.00
76632;BME280;65526;48.578;-4.520;2023-09-30T05:55:17;101792.72;;;10.39;100.00
76632;BME280;65526;48.578;-4.520;2023-09-30T05:57:48;101524.00;;;8.74;100.00
76632;BME280;65526;48.578;-4.520;2023-09-30T06:00:16;101698.72;;;9.44;100.00
76632;BME280;65526;48.578;-4.520;2023-09-30T06:03:01;101449.38;;;8.02;100.00
76632;BME280;65526;48.578;-4.520;2023-09-30T06:05:32;102181.66;;;12.46;100.00
76632;BME280;65526;48.578;-4.520;2023-09-30T06:08:00;101805.09;;;10.24;100.00
76632;BME280;65526;48.578;-4.520;2023-09-30T06:10:29;101393.72;;;7.81;100.00
76632;BME280;65526;48.578;-4.520;2023-09-30T06:12:56;101957.50;;;11.27;100.00
76632;BME280;65526;48.578;-4.520;2023-09-30T06:15:24;101395.19;;;7.79;100.00
76632;BME280;65526;48.578;-4.520;2023-09-30T06:17:55;101878.97;;;10.64;100.00
76632;BME280;65526;48.578;-4.520;2023-09-30T06:20:22;102128.34;;;12.48;100.00
76632;BME280;65526;48.578;-4.520;2023-09-30T06:22:49;101676.63;;;9.70;100.00
76632;BME280;65526;48.578;-4.520;2023-09-30T06:25:22;101657.09;;;9.44;100.00
76632;BME280;65526;48.578;-4.520;2023-09-30T06:27:56;101454.09;;;8.02;100.00
76632;BME280;65526;48.578;-4.520;2023-09-30T06:30:23;101766.69;;;9.86;100.00
76632;BME280;65526;48.578;-4.520;2023-09-30T06:32:56;101672.84;;;9.27;100.00
76632;BME280;65526;48.578;-4.520;2023-09-30T06:35:25;101653.84;;;9.11;100.00
76632;BME280;65526;48.578;-4.520;2023-09-30T06:37:55;102195.94;;;12.53;100.00
76632;BME280;65526;48.578;-4.520;2023-09-30T06:40:22;101684.44;;;9.60;100.00
76632;BME280;65526;48.578;-4.520;2023-09-30T06:42:48;101534.69;;;8.22;100.00
76632;BME280;65526;48.578;-4.520;2023-09-30T06:45:14;101861.69;;;10.93;100.00
76632;BME280;65526;48.578;-4.520;2023-09-30T06:47:41;101266.28;;;7.25;100.00
76632;BME280;65526;48.578;-4.520;2023-09-30T06:50:12;102130.00;;;12.66;100.00
76632;BME280;65526;48.578;-4.520;2023-09-30T06:52:46;102183.47;;;12.68;100.00
76632;BME280;65526;48.578;-4.520;2023-09-30T06:55:13;102129.03;;;12.45;100.00
76632;BME280;65526;48.578;-4.520;2023-09-30T06:57:40;101870.06;;;11.02;100.00
76632;BME280;65526;48.578;-4.520;2023-09-30T07:00:11;102165.91;;;12.76;100.00
76632;BME280;65526;48.578;-4.520;2023-09-30T07:02:38;101680.78;;;9.90;100.00
76632;BME280;65526;48.578;-4.520;2023-09-30T07:05:14;101831.09;;;10.93;100.00
76632;BME280;65526;48.578;-4.520;2023-09-30T07:07:42;101772.66;;;10.50;100.00
76632;BME280;65526;48.578;-4.520;2023-09-30T07:10:11;102167.88;;;12.84;100.00
76632;BME280;65526;48.578;-4.520;2023-09-30T07:12:38;101730.84;;;10.07;100.00
76632;BME280;65526;48.578;-4.520;2023-09-30T07:15:06;101567.03;;;9.42;100.00
76632;BME280;65526;48.578;-4.520;2023-09-30T07:17:33;101274.66;;;7.64;100.00
76632;BME280;65526;48.578;-4.520;2023-09-30T07:20:00;102209.25;;;12.91;100.00
76632;BME280;65526;48.578;-4.520;2023-09-30T07:22:27;101368.41;;;8.19;100.00
76632;BME280;65526;48.578;-4.520;2023-09-30T07:24:53;101897.41;;;11.26;100.00
76632;BME280;65526;48.578;-4.520;2023-09-30T07:27:22;101918.88;;;11.34;100.00
76632;BME280;65526;48.578;-4.520;2023-09-30T07:29:49;101157.31;;;6.72;100.00
76632;BME280;65526;48.578;-4.520;2023-09-30T07:32:16;101421.38;;;8.57;100.00
76632;BME280;65526;48.578;-4.520;2023-09-30T07:34:42;101677.75;;;10.17;100.00
76632;BME280;65526;48.578;-4.520;2023-09-30T07:37:10;102203.63;;;13.25;100.00
76632;BME280;65526;48.578;-4.520;2023-09-30T07:39:36;101593.59;;;10.00;100.00
76632;BME280;65526;48.578;-4.520;2023-09-30T07:42:03;101847.47;;;11.46;100.00
76632;BME280;65526;48.578;-4.520;2023-09-30T07:44:30;102136.22;;;13.44;100.00
76632;BME280;65526;48.578;-4.520;2023-09-30T07:46:56;101733.75;;;10.59;100.00
76632;BME280;65526;48.578;-4.520;2023-09-30T07:49:23;102173.31;;;13.53;100.00
76632;BME280;65526;48.578;-4.520;2023-09-30T07:51:50;101764.69;;;11.18;100.00
76632;BME280;65526;48.578;-4.520;2023-09-30T07:54:17;101868.75;;;11.85;100.00
76632;BME280;65526;48.578;-4.520;2023-09-30T07:56:43;101738.19;;;10.77;100.00
76632;BME280;65526;48.578;-4.520;2023-09-30T07:59:10;102144.34;;;13.66;100.00
76632;BME280;65526;48.578;-4.520;2023-09-30T08:01:37;101288.59;;;8.29;100.00
76632;BME280;65526;48.578;-4.520;2023-09-30T08:04:03;102144.63;;;13.73;100.00
76632;BME280;65526;48.578;-4.520;2023-09-30T08:06:30;101495.84;;;9.37;100.00
76632;BME280;65526;48.578;-4.520;2023-09-30T08:08:57;102093.59;;;13.56;100.00
76632;BME280;65526;48.578;-4.520;2023-09-30T08:11:24;102158.00;;;13.88;100.00
76632;BME280;65526;48.578;-4.520;2023-09-30T08:13:54;101696.09;;;11.22;100.00
76632;BME280;65526;48.578;-4.520;2023-09-30T08:16:20;101863.34;;;12.36;100.00
76632;BME280;65526;48.578;-4.520;2023-09-30T08:18:47;101741.94;;;11.24;100.00
76632;BME280;65526;48.578;-4.520;2023-09-30T08:21:13;101517.28;;;9.80;100.00
76632;BME280;65526;48.578;-4.520;2023-09-30T08:23:40;101628.06;;;11.02;100.00
76632;BME280;65526;48.578;-4.520;2023-09-30T08:26:06;101684.31;;;11.16;100.00
76632;BME280;65526;48.578;-4.520;2023-09-30T08:28:33;101605.13;;;11.05;100.00
76632;BME280;65526;48.578;-4.520;2023-09-30T08:31:07;101741.31;;;11.65;100.00
76632;BME280;65526;48.578;-4.520;2023-09-30T08:33:35;101350.28;;;9.52;100.00
76632;BME280;65526;48.578;-4.520;2023-09-30T08:36:07;101844.66;;;12.36;100.00
76632;BME280;65526;48.578;-4.520;2023-09-30T08:38:39;102169.16;;;14.68;100.00
76632;BME280;65526;48.578;-4.520;2023-09-30T08:41:07;101911.19;;;13.14;100.00
76632;BME280;65526;48.578;-4.520;2023-09-30T08:43:40;102144.13;;;14.84;100.00
76632;BME280;65526;48.578;-4.520;2023-09-30T08:46:07;101735.91;;;12.15;100.00
76632;BME280;65526;48.578;-4.520;2023-09-30T08:48:34;102146.84;;;14.59;100.00
76632;BME280;65526;48.578;-4.520;2023-09-30T08:51:01;101952.56;;;13.62;100.00
76632;BME280;65526;48.578;-4.520;2023-09-30T08:53:32;102162.56;;;15.18;100.00
76632;BME280;65526;48.578;-4.520;2023-09-30T08:55:58;102183.22;;;15.25;100.00
76632;BME280;65526;48.578;-4.520;2023-09-30T08:58:27;101880.44;;;13.64;100.00
76632;BME280;65526;48.578;-4.520;2023-09-30T09:00:55;101529.50;;;11.70;100.00
76632;BME280;65526;48.578;-4.520;2023-09-30T09:03:23;101726.03;;;12.68;100.00
76632;BME280;65526;48.578;-4.520;2023-09-30T09:05:58;101918.81;;;13.87;100.00
76632;BME280;65526;48.578;-4.520;2023-09-30T09:08:26;101514.44;;;11.71;100.00
76632;BME280;65526;48.578;-4.520;2023-09-30T09:10:55;102010.69;;;14.76;100.00
76632;BME280;65526;48.578;-4.520;2023-09-30T09:13:22;101774.69;;;13.21;100.00
76632;BME280;65526;48.578;-4.520;2023-09-30T09:15:49;101551.75;;;12.00;100.00
76632;BME280;65526;48.578;-4.520;2023-09-30T09:18:31;101760.09;;;13.36;100.00
76632;BME280;65526;48.578;-4.520;2023-09-30T09:21:11;102119.78;;;16.02;100.00
76632;BME280;65526;48.578;-4.520;2023-09-30T09:23:46;101843.03;;;14.46;100.00
76632;BME280;65526;48.578;-4.520;2023-09-30T09:26:26;101851.19;;;14.63;100.00
76632;BME280;65526;48.578;-4.520;2023-09-30T09:29:03;101335.13;;;11.51;100.00
76632;BME280;65526;48.578;-4.520;2023-09-30T09:31:35;101398.53;;;12.00;100.00
76632;BME280;65526;48.578;-4.520;2023-09-30T09:34:03;101688.94;;;13.54;100.00
76632;BME280;65526;48.578;-4.520;2023-09-30T09:36:40;101790.22;;;14.57;100.00
76632;BME280;65526;48.578;-4.520;2023-09-30T09:39:07;101395.34;;;12.10;100.00
76632;BME280;65526;48.578;-4.520;2023-09-30T09:41:54;102127.53;;;16.73;100.00
76632;BME280;65526;48.578;-4.520;2023-09-30T09:44:24;101602.94;;;13.72;100.00
76632;BME280;65526;48.578;-4.520;2023-09-30T09:46:51;102115.97;;;16.90;100.00
76632;BME280;65526;48.578;-4.520;2023-09-30T09:49:18;101560.81;;;13.40;100.00
76632;BME280;65526;48.578;-4.520;2023-09-30T09:51:46;101522.78;;;13.36;100.00
76632;BME280;65526;48.578;-4.520;2023-09-30T09:54:14;102054.53;;;16.73;100.00
76632;BME280;65526;48.578;-4.520;2023-09-30T09:56:44;102134.13;;;17.24;100.00
76632;BME280;65526;48.578;-4.520;2023-09-30T09:59:12;101375.44;;;12.81;100.00
76632;BME280;65526;48.578;-4.520;2023-09-30T10:01:40;101520.03;;;13.88;100.00
76632;BME280;65526;48.578;-4.520;2023-09-30T10:04:06;101497.03;;;13.55;100.00
76632;BME280;65526;48.578;-4.520;2023-09-30T10:06:34;102110.72;;;17.64;100.00
76632;BME280;65526;48.578;-4.520;2023-09-30T10:09:09;101660.25;;;14.94;100.00
76632;BME280;65526;48.578;-4.520;2023-09-30T10:11:38;102082.91;;;17.78;100.00
76632;BME280;65526;48.578;-4.520;2023-09-30T10:14:06;101551.63;;;14.16;100.00
76632;BME280;65526;48.578;-4.520;2023-09-30T10:22:21;102082.31;;;18.04;100.00
76632;BME280;65526;48.578;-4.520;2023-09-30T10:24:52;102113.50;;;18.14;100.00
76632;BME280;65526;48.578;-4.520;2023-09-30T10:40:51;102034.44;;;18.58;100.00
76632;BME280;65526;48.578;-4.520;2023-09-30T10:43:32;101769.28;;;16.37;100.00
76632;BME280;65526;48.578;-4.520;2023-09-30T10:46:03;101843.88;;;17.39;100.00
76632;BME280;65526;48.578;-4.520;2023-09-30T10:48:34;102054.50;;;18.98;100.00
76632;BME280;65526;48.578;-4.520;2023-09-30T10:51:18;101628.34;;;16.24;100.00
76632;BME280;65526;48.578;-4.520;2023-09-30T10:53:51;102074.16;;;19.18;100.00
76632;BME280;65526;48.578;-4.520;2023-09-30T10:56:19;101814.19;;;17.80;100.00
76632;BME280;65526;48.578;-4.520;2023-09-30T10:58:50;102084.47;;;19.33;100.00
76632;BME280;65526;48.578;-4.520;2023-09-30T11:01:22;101499.91;;;15.95;100.00
76632;BME280;65526;48.578;-4.520;2023-09-30T11:03:50;101608.47;;;16.68;100.00
76632;BME280;65526;48.578;-4.520;2023-09-30T11:06:21;101860.78;;;18.01;100.00
76632;BME280;65526;48.578;-4.520;2023-09-30T11:08:53;102067.63;;;19.59;100.00
76632;BME280;65526;48.578;-4.520;2023-09-30T11:11:35;101623.31;;;16.69;100.00
76632;BME280;65526;48.578;-4.520;2023-09-30T11:14:02;101621.28;;;17.08;100.00
76632;BME280;65526;48.578;-4.520;2023-09-30T11:16:30;101523.47;;;16.29;100.00
76632;BME280;65526;48.578;-4.520;2023-09-30T11:18:56;101824.97;;;18.43;100.00
76632;BME280;65526;48.578;-4.520;2023-09-30T11:21:23;101776.41;;;18.01;100.00
76632;BME280;65526;48.578;-4.520;2023-09-30T11:23:50;101849.88;;;18.41;100.00
76632;BME280;65526;48.578;-4.520;2023-09-30T11:26:29;102078.16;;;20.18;100.00
76632;BME280;65526;48.578;-4.520;2023-09-30T11:31:38;102113.00;;;20.30;100.00
76632;BME280;65526;48.578;-4.520;2023-09-30T11:34:05;101653.50;;;17.59;100.00
76632;BME280;65526;48.578;-4.520;2023-09-30T11:36:41;101901.28;;;19.36;100.00
76632;BME280;65526;48.578;-4.520;2023-09-30T11:39:25;101370.66;;;16.23;100.00
76632;BME280;65526;48.578;-4.520;2023-09-30T11:41:52;101502.81;;;16.79;100.00
76632;BME280;65526;48.578;-4.520;2023-09-30T11:44:19;102017.66;;;20.49;100.00
76632;BME280;65526;48.578;-4.520;2023-09-30T11:46:56;101497.13;;;16.98;100.00
76632;BME280;65526;48.578;-4.520;2023-09-30T11:49:26;102053.84;;;20.74;100.00
76632;BME280;65526;48.578;-4.520;2023-09-30T11:51:54;101358.22;;;16.66;100.00
76632;BME280;65526;48.578;-4.520;2023-09-30T11:54:20;102060.72;;;20.76;100.00
76632;BME280;65526;48.578;-4.520;2023-09-30T11:56:49;101643.75;;;18.25;100.00
76632;BME280;65526;48.578;-4.520;2023-09-30T11:59:17;101615.28;;;18.30;100.00
76632;BME280;65526;48.578;-4.520;2023-09-30T12:01:46;101352.22;;;16.68;100.00
76632;BME280;65526;48.578;-4.520;2023-09-30T12:04:15;102058.75;;;20.80;100.00
76632;BME280;65526;48.578;-4.520;2023-09-30T12:06:43;101468.53;;;17.16;100.00
76632;BME280;65526;48.578;-4.520;2023-09-30T12:09:09;102031.25;;;20.77;100.00
76632;BME280;65526;48.578;-4.520;2023-09-30T12:11:41;101481.88;;;17.22;100.00
76632;BME280;65526;48.578;-4.520;2023-09-30T12:14:13;102030.06;;;20.78;100.00
76632;BME280;65526;48.578;-4.520;2023-09-30T12:16:39;101493.50;;;17.21;100.00
76632;BME280;65526;48.578;-4.520;2023-09-30T12:19:07;101755.94;;;18.79;100.00
76632;BME280;65526;48.578;-4.520;2023-09-30T12:21:34;101748.06;;;18.62;100.00
76632;BME280;65526;48.578;-4.520;2023-09-30T12:24:02;102071.09;;;20.65;100.00
76632;BME280;65526;48.578;-4.520;2023-09-30T12:26:30;101624.16;;;17.79;100.00
76632;BME280;65526;48.578;-4.520;2023-09-30T12:28:58;102027.84;;;20.61;100.00
76632;BME280;65526;48.578;-4.520;2023-09-30T12:31:25;101970.38;;;20.09;100.00
76632;BME280;65526;48.578;-4.520;2023-09-30T12:33:51;102027.06;;;20.61;100.00
76632;BME280;65526;48.578;-4.520;2023-09-30T12:36:21;101412.84;;;16.49;100.00
76632;BME280;65526;48.578;-4.520;2023-09-30T12:38:48;102035.19;;;20.66;100.00
76632;BME280;65526;48.578;-4.520;2023-09-30T12:41:14;101489.31;;;17.11;100.00
76632;BME280;65526;48.578;-4.520;2023-09-30T12:43:41;101615.41;;;18.11;100.00
76632;BME280;65526;48.578;-4.520;2023-09-30T12:46:11;101725.38;;;18.51;100.00
76632;BME280;65526;48.578;-4.520;2023-09-30T12:48:42;101536.38;;;17.40;100.00
76632;BME280;65526;48.578;-4.520;2023-09-30T12:51:08;101594.84;;;17.80;100.00
76632;BME280;65526;48.578;-4.520;2023-09-30T12:53:36;101622.25;;;17.84;100.00
76632;BME280;65526;48.578;-4.520;2023-09-30T12:56:02;101752.00;;;18.84;100.00
76632;BME280;65526;48.578;-4.520;2023-09-30T12:58:29;101511.72;;;17.08;100.00
76632;BME280;65526;48.578;-4.520;2023-09-30T13:00:56;101853.97;;;19.23;100.00